Terminal Aerodrome Forecast
Issued by NWS Sioux Falls, SD

Home | Current Version | Previous Version | Graphics & Text | Print | Product List | Glossary On
Versions: 1 2 3 4 5 6 7 8 9 10 11 12 13
000
FTUS43 KFSD 042320
TAFHON
TAF
KHON 042320Z 0500/0524 34007KT P6SM SKC
     FM050200 00000KT P6SM SKC
     FM051300 20006KT P6SM SKC
     FM051800 21010KT P6SM SKC=

USA.gov is the U.S. government's official web portal to all federal, state and local government web resources and services.